Data for 02/10/2015

Time Sea-Level Adjusted Pressure Absolute Pressure Temperature Relative Humidity Dew Point   
(mb) (inHg) (mb) (inHg) (C) (F) (%) (C) (F)
00:05 1015 29.97 844 24.92 7.3 45.2 42 -4.7 23.6
00:10 1015 29.97 844 24.92 7.3 45.1 43 -4.6 23.7
00:15 1015 29.97 844 24.92 7.3 45.1 42 -4.7 23.6
00:20 1015 29.97 844 24.92 7.3 45.1 43 -4.3 24.2
00:25 1015 29.97 844 24.92 7.2 44.9 45 -4.1 24.6
00:30 1015 29.97 844 24.92 7 44.7 45 -4 24.7
00:35 1015 29.97 844 24.92 7 44.6 44 -4.3 24.2
00:40 1015 29.97 844 24.92 7.1 44.7 44 -4.2 24.4
00:45 1015 29.97 844 24.92 7 44.5 44 -4.4 24.2
00:50 1015 29.97 844 24.92 7 44.5 44 -4.5 23.9
00:55 1015 29.97 844 24.92 7 44.7 43 -4.7 23.5
01:00 1015 29.97 844 24.92 7.1 44.8 43 -4.6 23.7
01:05 1015 29.97 845 24.95 7.2 44.9 43 -4.6 23.8
01:10 1015 29.97 845 24.95 7.2 44.9 43 -4.6 23.7
01:15 1015 29.97 845 24.95 7.1 44.8 43 -4.6 23.8
01:20 1015 29.97 845 24.95 7.1 44.7 43 -4.5 23.8
01:25 1015 29.97 845 24.95 7 44.6 44 -4.5 23.9
01:30 1015 29.97 845 24.95 7 44.6 43 -4.6 23.6
01:35 1015 29.97 845 24.95 7.1 44.7 43 -4.6 23.6
01:40 1015 29.97 844 24.92 7.1 44.8 43 -4.6 23.7
01:45 1015 29.97 844 24.92 7 44.7 43 -4.8 23.3
01:50 1015 29.97 844 24.92 7.1 44.8 42 -4.8 23.3
01:55 1015 29.97 844 24.92 7 44.7 43 -4.7 23.5
02:00 1015 29.97 844 24.92 6.9 44.4 44 -4.7 23.6
02:05 1015 29.97 844 24.92 6.8 44.3 43 -4.9 23.2
02:10 1015 29.97 844 24.92 6.8 44.3 42 -5.1 22.9
02:15 1015 29.97 844 24.92 6.9 44.4 42 -5.1 22.8
02:20 1015 29.97 845 24.95 6.8 44.3 43 -5 23
02:25 1015 29.97 845 24.95 6.8 44.3 42 -5.3 22.5
02:30 1015 29.97 845 24.95 6.9 44.4 42 -5.2 22.6
02:35 1015 29.97 845 24.95 6.8 44.3 42 -5.1 22.9
02:40 1015 29.97 845 24.95 6.8 44.2 42 -5.1 22.8
02:45 1015 29.97 845 24.95 6.7 44.1 43 -5.1 22.9
02:50 1016 30 845 24.95 6.7 44 42 -5.2 22.7
02:55 1016 30 845 24.95 6.7 44 43 -5 22.9
03:00 1016 30 845 24.95 6.6 43.9 42 -5.3 22.5
03:05 1016 30 845 24.95 6.6 43.9 43 -5.1 22.9
03:10 1016 30 845 24.95 6.6 43.9 43 -5 23
03:15 1016 30 845 24.95 6.7 44 42 -5.3 22.5
03:20 1016 30 845 24.95 6.7 44.1 42 -5.2 22.6
03:25 1016 30 845 24.95 6.8 44.3 44 -4.7 23.6
03:30 1016 30 845 24.95 6.4 43.5 47 -4 24.8
03:35 1016 30 845 24.95 6.1 42.9 48 -4.1 24.6
03:40 1016 30 845 24.95 6 42.7 49 -4 24.8
03:45 1016 30 845 24.95 5.9 42.6 49 -3.9 24.9
03:50 1016 30 846 24.98 5.8 42.4 50 -3.7 25.3
03:55 1016 30 846 24.98 5.5 42 53 -3.1 26.3
04:00 1017 30.03 846 24.98 5.3 41.5 55 -3 26.6
04:05 1017 30.03 846 24.98 5.1 41.1 57 -2.8 27
04:10 1017 30.03 846 24.98 5 41 56 -2.9 26.7
04:15 1017 30.03 846 24.98 4.9 40.9 57 -3 26.7
04:20 1017 30.03 846 24.98 4.9 40.8 57 -2.9 26.8
04:25 1017 30.03 846 24.98 4.9 40.8 57 -3 26.6
04:30 1017 30.03 846 24.98 4.8 40.7 58 -2.8 26.9
04:35 1017 30.03 846 24.98 4.8 40.6 58 -2.8 27
04:40 1017 30.03 846 24.98 4.8 40.7 58 -2.6 27.3
04:45 1017 30.03 846 24.98 4.9 40.8 56 -3.1 26.4
04:50 1017 30.03 846 24.98 5.2 41.4 55 -3 26.6
04:55 1017 30.03 846 24.98 5.3 41.5 56 -2.9 26.8
05:00 1017 30.03 846 24.98 5.2 41.4 56 -2.9 26.8
05:05 1017 30.03 846 24.98 5.3 41.5 55 -2.9 26.8
05:10 1017 30.03 846 24.98 5.2 41.4 55 -3 26.6
05:15 1017 30.03 846 24.98 5.3 41.6 56 -2.8 26.9
05:20 1017 30.03 846 24.98 5.3 41.5 56 -2.8 26.9
05:25 1017 30.03 846 24.98 5.3 41.5 56 -2.8 26.9
05:30 1017 30.03 846 24.98 5.3 41.5 55 -3 26.6
05:35 1017 30.03 846 24.98 5.2 41.4 56 -2.9 26.8
05:40 1017 30.03 847 25.01 5.1 41.2 56 -2.8 26.9
05:45 1017 30.03 847 25.01 5.2 41.3 57 -2.7 27.1
05:50 1017 30.03 847 25.01 5.2 41.4 57 -2.6 27.3
05:55 1017 30.03 847 25.01 5.2 41.4 59 -2.1 28.2
06:00 1017 30.03 847 25.01 5.2 41.3 59 -2.2 28
06:05 1018 30.06 847 25.01 5.2 41.3 59 -2.2 28
06:10 1018 30.06 847 25.01 5.1 41.2 58 -2.3 27.8
06:15 1018 30.06 847 25.01 5 41 60 -2.2 28
06:20 1018 30.06 847 25.01 4.7 40.5 59 -2.6 27.3
06:25 1018 30.06 847 25.01 4.7 40.5 60 -2.4 27.7
06:30 1018 30.06 847 25.01 4.7 40.4 59 -2.6 27.3
06:35 1018 30.06 847 25.01 4.6 40.4 59 -2.6 27.3
06:40 1018 30.06 847 25.01 4.7 40.5 59 -2.6 27.3
06:45 1018 30.06 847 25.01 4.9 40.8 59 -2.5 27.4
06:50 1018 30.06 847 25.01 5 40.9 59 -2.5 27.6
06:55 1018 30.06 847 25.01 5 41 59 -2.5 27.6
07:00 1018 30.06 847 25.01 4.9 40.9 59 -2.4 27.7
07:05 1018 30.06 847 25.01 5 41 58 -2.4 27.6
07:10 1018 30.06 847 25.01 5 41.1 58 -2.4 27.6
07:15 1018 30.06 847 25.01 5 41.1 58 -2.4 27.6
07:20 1018 30.06 847 25.01 5 41.1 58 -2.5 27.6
07:25 1018 30.06 847 25.01 5.1 41.2 57 -2.7 27.2
07:30 1018 30.06 847 25.01 5.2 41.3 57 -2.6 27.3
07:35 1018 30.06 847 25.01 5.2 41.4 57 -2.7 27.1
07:40 1018 30.06 847 25.01 5.2 41.4 56 -2.8 27
07:45 1018 30.06 847 25.01 5.3 41.6 57 -2.5 27.5
07:50 1018 30.06 847 25.01 5.4 41.7 56 -2.7 27.1
07:55 1018 30.06 847 25.01 5.6 42 54 -2.9 26.7
08:00 1018 30.06 848 25.04 5.8 42.4 55 -2.6 27.3
08:05 1018 30.06 848 25.04 5.8 42.4 54 -2.8 26.9
08:10 1018 30.06 848 25.04 5.8 42.4 54 -2.9 26.8
08:15 1018 30.06 848 25.04 5.9 42.6 52 -3.3 26.1
08:20 1019 30.09 848 25.04 6 42.7 54 -2.6 27.3
08:25 1019 30.09 848 25.04 5.8 42.4 54 -2.7 27.1
08:30 1019 30.09 848 25.04 5.7 42.3 56 -2.4 27.7
08:35 1019 30.09 848 25.04 5.6 42 57 -2.3 27.8
08:40 1019 30.09 848 25.04 5.5 41.9 57 -2.4 27.7
08:45 1019 30.09 848 25.04 5.4 41.8 58 -2.1 28.2
08:50 1019 30.09 849 25.07 5.1 41.2 63 -1.2 29.8
08:55 1020 30.12 849 25.07 4.5 40.1 69 -0.6 30.9
09:00 1020 30.12 849 25.07 4.1 39.4 72 -0.6 31
09:05 1020 30.12 849 25.07 3.9 39 72 -0.6 30.9
09:10 1020 30.12 849 25.07 3.8 38.9 72 -0.7 30.7
09:15 1020 30.12 849 25.07 3.9 39.1 72 -0.7 30.7
09:20 1020 30.12 849 25.07 4.1 39.3 70 -1 30.2
09:25 1020 30.12 849 25.07 4.2 39.5 68 -1.1 30
09:30 1020 30.12 849 25.07 4.3 39.7 68 -1 30.2
09:35 1020 30.12 849 25.07 4.4 39.9 68 -1 30.2
09:40 1020 30.12 849 25.07 4.4 40 68 -0.9 30.5
09:45 1020 30.12 849 25.07 4.5 40.1 68 -0.8 30.5
09:50 1020 30.12 849 25.07 4.5 40 69 -0.7 30.8
09:55 1020 30.12 849 25.07 4.5 40.1 68 -0.8 30.6
10:00 1020 30.12 849 25.07 4.6 40.2 69 -0.7 30.8
10:05 1020 30.12 850 25.1 4.6 40.2 68 -0.8 30.6
10:10 1020 30.12 850 25.1 4.6 40.2 69 -0.7 30.8
10:15 1020 30.12 850 25.1 4.6 40.3 68 -0.7 30.8
10:20 1021 30.15 850 25.1 4.6 40.3 69 -0.5 31.1
10:25 1021 30.15 850 25.1 4.7 40.4 70 -0.3 31.4
10:30 1021 30.15 850 25.1 4.4 39.9 71 -0.4 31.3
10:35 1021 30.15 850 25.1 4.4 40 71 -0.4 31.2
10:40 1021 30.15 850 25.1 4.4 39.9 72 -0.1 31.8
10:45 1021 30.15 850 25.1 4.2 39.6 74 -0 32
10:50 1021 30.15 850 25.1 4.1 39.4 76 0.3 32.6
10:55 1021 30.15 850 25.1 4 39.2 77 0.3 32.5
11:00 1021 30.15 850 25.1 4.1 39.4 76 0.2 32.4
11:05 1021 30.15 850 25.1 4.2 39.6 75 0.3 32.5
11:10 1021 30.15 850 25.1 4.4 39.8 75 0.4 32.7
11:15 1021 30.15 850 25.1 4.5 40 75 0.4 32.7
11:20 1021 30.15 850 25.1 4.4 40 75 0.4 32.7
11:25 1021 30.15 850 25.1 4.5 40 76 0.5 33
11:30 1021 30.15 850 25.1 4.6 40.2 75 0.6 33.1
11:35 1021 30.15 850 25.1 4.5 40.2 74 0.2 32.4
11:40 1021 30.15 850 25.1 4.6 40.3 74 0.4 32.7
11:45 1021 30.15 850 25.1 4.6 40.2 74 0.3 32.6
11:50 1021 30.15 851 25.13 4.6 40.3 71 -0.2 31.6
11:55 1021 30.15 851 25.13 4.7 40.5 72 0 32.1
12:00 1021 30.15 851 25.13 5 41.1 70 0 32.1
12:05 1021 30.15 851 25.13 5.7 42.2 67 -0.1 31.9
12:10 1022 30.18 851 25.13 6.1 42.9 66 0.2 32.3
12:15 1022 30.18 851 25.13 6.2 43.1 63 -0.3 31.5
12:20 1022 30.18 851 25.13 6.1 42.9 64 -0.3 31.5
12:25 1022 30.18 851 25.13 6.2 43.2 64 -0 32
12:30 1022 30.18 851 25.13 6.5 43.7 63 -0.1 31.8
12:35 1022 30.18 851 25.13 7 44.6 59 -0.5 31
12:40 1022 30.18 851 25.13 6.8 44.3 59 -0.5 31.1
12:45 1022 30.18 851 25.13 6.7 44.1 60 -0.6 31
12:50 1022 30.18 851 25.13 7.3 45.1 56 -0.8 30.5
12:55 1022 30.18 851 25.13 7.5 45.6 55 -1 30.2
13:00 1022 30.18 851 25.13 8.1 46.5 55 -0.5 31.2
13:05 1022 30.18 851 25.13 8.4 47.1 52 -1 30.3
13:10 1022 30.18 851 25.13 8.3 46.9 52 -1 30.3
13:15 1022 30.18 851 25.13 8 46.4 51 -1.4 29.4
13:20 1022 30.18 851 25.13 7.8 46 53 -1.1 30.1
13:25 1022 30.18 851 25.13 7.6 45.7 53 -1.3 29.6
13:30 1022 30.18 851 25.13 7.5 45.4 54 -1.2 29.9
13:35 1022 30.18 851 25.13 7.4 45.4 53 -1.4 29.5
13:40 1022 30.18 851 25.13 7.4 45.4 53 -1.6 29.1
13:45 1022 30.18 851 25.13 7.3 45.1 53 -1.5 29.2
13:50 1022 30.18 851 25.13 7.2 44.9 54 -1.5 29.3
13:55 1022 30.18 851 25.13 7.3 45.1 53 -1.6 29.2
14:00 1022 30.18 851 25.13 7.4 45.2 52 -1.9 28.6
14:05 1022 30.18 851 25.13 7.6 45.7 51 -1.8 28.8
14:10 1022 30.18 851 25.13 7.8 46 50 -2 28.3
14:15 1022 30.18 851 25.13 7.8 46 49 -2.1 28.2
14:20 1022 30.18 851 25.13 7.9 46.2 49 -2.2 28
14:25 1022 30.18 851 25.13 8.1 46.5 48 -2.4 27.8
14:30 1022 30.18 851 25.13 8.1 46.6 48 -2.3 27.9
14:35 1022 30.18 851 25.13 8.1 46.5 47 -2.5 27.5
14:40 1022 30.18 851 25.13 8 46.4 48 -2.4 27.7
14:45 1022 30.18 851 25.13 7.9 46.3 48 -2.3 27.8
14:50 1022 30.18 851 25.13 7.8 46.1 48 -2.4 27.7
14:55 1022 30.18 851 25.13 7.9 46.2 49 -2.2 28.1
15:00 1022 30.18 851 25.13 7.9 46.3 48 -2.5 27.6
15:05 1022 30.18 851 25.13 8 46.4 47 -2.6 27.3
15:10 1022 30.18 851 25.13 7.9 46.1 47 -2.7 27.1
15:15 1022 30.18 851 25.13 8 46.4 47 -2.5 27.5
15:20 1022 30.18 851 25.13 7.8 46 49 -2.3 27.9
15:25 1022 30.18 851 25.13 7.7 45.9 48 -2.5 27.5
15:30 1022 30.18 851 25.13 7.7 45.8 49 -2.5 27.5
15:35 1022 30.18 851 25.13 7.6 45.7 49 -2.4 27.7
15:40 1022 30.18 852 25.16 7.6 45.6 49 -2.4 27.7
15:45 1022 30.18 852 25.16 7.6 45.6 49 -2.5 27.6
15:50 1022 30.18 852 25.16 7.6 45.8 49 -2.4 27.7
15:55 1022 30.18 852 25.16 7.8 46 49 -2.3 27.8
16:00 1023 30.21 852 25.16 7.9 46.1 49 -2.3 27.9
16:05 1023 30.21 852 25.16 7.9 46.2 49 -2.2 28
16:10 1023 30.21 852 25.16 7.9 46.2 49 -2.1 28.2
16:15 1023 30.21 852 25.16 7.8 46 49 -2.2 28
16:20 1023 30.21 852 25.16 7.8 46 51 -1.6 29.1
16:25 1023 30.21 852 25.16 7.3 45.1 53 -1.6 29.2
16:30 1023 30.21 852 25.16 7.1 44.8 54 -1.7 29
16:35 1023 30.21 852 25.16 7 44.6 55 -1.5 29.3
16:40 1023 30.21 852 25.16 7.2 44.9 53 -1.7 29
16:45 1023 30.21 852 25.16 7.2 44.9 53 -1.8 28.7
16:50 1023 30.21 852 25.16 6.9 44.5 53 -1.9 28.5
16:55 1023 30.21 852 25.16 7 44.6 53 -1.9 28.5
17:00 1023 30.21 852 25.16 7.1 44.7 53 -1.9 28.5
17:05 1023 30.21 852 25.16 7.3 45.1 52 -2 28.3
17:10 1023 30.21 852 25.16 7.4 45.3 51 -2.2 28.1
17:15 1023 30.21 852 25.16 7.5 45.5 51 -1.9 28.7
17:20 1023 30.21 852 25.16 7.5 45.5 50 -2.1 28.2
17:25 1023 30.21 852 25.16 7.5 45.5 50 -2.3 27.9
17:30 1023 30.21 852 25.16 7.5 45.5 50 -2.2 28
17:35 1023 30.21 852 25.16 7.3 45.2 51 -2.1 28.1
17:40 1023 30.21 852 25.16 7.3 45.1 51 -2.2 28.1
17:45 1023 30.21 852 25.16 7.4 45.3 51 -2.1 28.2
17:50 1023 30.21 853 25.19 7.4 45.3 51 -2 28.3
17:55 1023 30.21 853 25.19 7.1 44.8 52 -2.2 28
18:00 1023 30.21 853 25.19 7 44.6 53 -1.9 28.6
18:05 1024 30.24 853 25.19 7.3 45.1 51 -2.2 28.1
18:10 1024 30.24 853 25.19 7.5 45.5 50 -2.2 28
18:15 1024 30.24 853 25.19 7.6 45.7 50 -2 28.4
18:20 1024 30.24 853 25.19 7.5 45.4 51 -2 28.4
18:25 1024 30.24 853 25.19 7.3 45.1 51 -2.1 28.3
18:30 1024 30.24 853 25.19 7.1 44.8 58 -0.5 31.1
18:35 1024 30.24 853 25.19 6.8 44.2 57 -1.1 30
18:40 1024 30.24 853 25.19 6.4 43.6 58 -1.1 30
18:45 1024 30.24 853 25.19 6.3 43.3 59 -1.1 30
18:50 1024 30.24 853 25.19 6.2 43.2 61 -0.8 30.6
18:55 1024 30.24 853 25.19 6.1 43 63 -0.5 31.2
19:00 1024 30.24 853 25.19 5.6 42.1 66 -0.3 31.4
19:05 1024 30.24 854 25.22 5.3 41.5 67 -0.3 31.5
19:10 1024 30.24 854 25.22 5 41 69 -0.2 31.6
19:15 1024 30.24 854 25.22 4.8 40.7 70 -0.2 31.6
19:20 1025 30.27 854 25.22 4.7 40.5 70 -0.2 31.7
19:25 1025 30.27 854 25.22 4.7 40.4 70 -0.3 31.5
19:30 1025 30.27 854 25.22 4.7 40.4 70 -0.3 31.4
19:35 1025 30.27 854 25.22 4.7 40.5 70 -0.3 31.4
19:40 1025 30.27 854 25.22 4.7 40.5 70 -0.3 31.5
19:45 1025 30.27 854 25.22 4.6 40.3 71 -0.2 31.7
19:50 1025 30.27 854 25.22 4.5 40.1 72 -0.1 31.8
19:55 1025 30.27 854 25.22 4.3 39.7 74 -0 32
20:00 1025 30.27 854 25.22 4.2 39.6 74 0.1 32.1
20:05 1025 30.27 854 25.22 4.2 39.6 77 0.5 32.8
20:10 1025 30.27 854 25.22 4.1 39.4 77 0.5 32.9
20:15 1025 30.27 854 25.22 4 39.1 78 0.6 33
20:20 1025 30.27 855 25.25 3.9 39.1 81 1 33.7
20:25 1025 30.27 855 25.25 3.9 38.9 83 1.2 34.1
20:30 1025 30.27 855 25.25 3.6 38.5 83 1 33.8
20:35 1025 30.27 855 25.25 3.5 38.3 82 0.8 33.4
20:40 1025 30.27 854 25.22 3.6 38.4 83 0.9 33.7
20:45 1025 30.27 854 25.22 3.6 38.4 83 0.9 33.6
20:50 1025 30.27 855 25.25 3.5 38.4 80 0.5 32.8
20:55 1025 30.27 855 25.25 3.6 38.4 80 0.4 32.7
21:00 1025 30.27 855 25.25 3.7 38.7 80 0.6 33.1
21:05 1025 30.27 855 25.25 3.8 38.8 80 0.6 33.1
21:10 1025 30.27 855 25.25 3.6 38.6 79 0.3 32.6
21:15 1025 30.27 855 25.25 3.6 38.5 82 0.9 33.6
21:20 1025 30.27 855 25.25 3.3 38 84 0.9 33.7
21:25 1025 30.27 855 25.25 3.1 37.7 85 0.9 33.6
21:30 1025 30.27 855 25.25 3.1 37.7 85 0.9 33.5
21:35 1025 30.27 855 25.25 3.1 37.6 84 0.6 33.2
21:40 1025 30.27 855 25.25 3.2 37.7 83 0.5 33
21:45 1026 30.3 855 25.25 3.3 37.9 82 0.5 32.9
21:50 1025 30.27 855 25.25 3.1 37.6 84 0.7 33.3
21:55 1026 30.3 855 25.25 2.8 37.1 86 0.8 33.4
22:00 1026 30.3 855 25.25 2.7 36.9 86 0.6 33
22:05 1025 30.27 855 25.25 2.7 36.8 86 0.6 33
22:10 1026 30.3 855 25.25 2.6 36.6 87 0.6 33
22:15 1026 30.3 855 25.25 2.6 36.7 86 0.5 32.9
22:20 1026 30.3 855 25.25 2.6 36.6 87 0.6 33
22:25 1026 30.3 855 25.25 2.5 36.5 87 0.5 32.9
22:30 1026 30.3 855 25.25 2.5 36.4 86 0.4 32.7
22:35 1026 30.3 855 25.25 2.5 36.6 85 0.3 32.6
22:40 1026 30.3 855 25.25 2.4 36.3 86 0.3 32.5
22:45 1026 30.3 855 25.25 2.3 36.1 86 0.2 32.4
22:50 1026 30.3 855 25.25 2.3 36.2 86 0.2 32.3
22:55 1026 30.3 855 25.25 2.3 36.1 86 0.2 32.4
23:00 1026 30.3 855 25.25 2.2 35.9 87 0.2 32.4
23:05 1026 30.3 855 25.25 2.2 36 85 -0 31.9
23:10 1026 30.3 855 25.25 2.4 36.2 85 0.1 32.1
23:15 1026 30.3 855 25.25 2.3 36.2 84 -0 32
23:20 1026 30.3 855 25.25 2.1 35.8 86 0.1 32.1
23:25 1026 30.3 855 25.25 1.9 35.4 87 0 32
23:30 1026 30.3 855 25.25 1.9 35.4 87 -0 32
23:35 1026 30.3 855 25.25 1.9 35.4 87 -0 32
23:40 1026 30.3 855 25.25 1.8 35.2 88 -0.1 31.9
23:45 1026 30.3 855 25.25 1.7 35 89 0 32
23:50 1026 30.3 855 25.25 1.6 34.9 89 -0.1 31.8
23:55 1026 30.3 855 25.25 1.4 34.6 89 -0.2 31.6
24:00 1026 30.3 855 25.25 1.5 34.8 88 -0.2 31.6